Time;durP1;ratioP1;P1;durP2;ratioP2;P2;SDS_P1;SDS_P2;PMS_P1;PMS_P2;Temp;Humidity;BMP_temperature;BMP_pressure;BME280_temperature;BME280_humidity;BME280_pressure;Samples;Min_cycle;Max_cycle;Signal;HPM_P1;HPM_P2
2021/11/04 00:04:08;;;;;;;1999.90;999.90;;;;;;;9.28;77.46;99800.38;15694064;28;20049;-61
2021/11/04 00:11:40;;;;;;;1999.90;999.90;;;;;;;9.41;76.79;99800.00;15680375;28;20091;-61
2021/11/04 00:19:14;;;;;;;1999.90;999.90;;;;;;;9.08;78.36;99785.38;15694978;28;20044;-61
2021/11/04 00:26:47;;;;;;;1999.90;999.90;;;;;;;8.96;78.69;99773.06;15722465;28;20043;-59
2021/11/04 00:34:21;;;;;;;1999.90;999.90;;;;;;;9.03;78.69;99763.31;15686395;28;1025377;-61
2021/11/04 00:41:53;;;;;;;1999.90;999.90;;;;;;;9.06;78.18;99755.09;15685319;28;20047;-61
2021/11/04 00:49:27;;;;;;;1999.90;999.90;;;;;;;9.18;77.90;99757.09;15698864;28;20037;-61
2021/11/04 00:57:01;;;;;;;1999.90;999.90;;;;;;;9.08;78.33;99747.22;15713692;28;20041;-61
2021/11/04 01:04:35;;;;;;;1999.90;999.90;;;;;;;9.31;77.76;99760.69;15682714;28;20067;-60
2021/11/04 01:12:08;;;;;;;1999.90;999.90;;;;;;;9.29;77.22;99763.00;15702781;28;20041;-60
2021/11/04 01:19:42;;;;;;;1999.90;999.90;;;;;;;9.18;78.16;99757.91;15705845;28;20086;-60
2021/11/04 01:27:15;;;;;;;1999.90;999.90;;;;;;;9.01;78.32;99752.53;15701187;28;20041;-58
2021/11/04 01:34:49;;;;;;;1999.90;999.90;;;;;;;8.99;78.50;99743.72;15704075;28;20101;-61
2021/11/04 01:42:21;;;;;;;1999.90;999.90;;;;;;;9.26;77.97;99722.75;15672237;28;20106;-57
2021/11/04 01:49:55;;;;;;;1999.90;999.90;;;;;;;9.05;78.20;99722.84;15685782;28;20044;-61
2021/11/04 01:57:28;;;;;;;1999.90;999.90;;;;;;;9.23;77.63;99726.22;15652468;28;20087;-61
2021/11/04 02:05:05;;;;;;;1999.90;999.90;;;;;;;9.01;78.32;99716.38;15699688;28;20055;-61
2021/11/04 02:12:50;;;;;;;1999.90;999.90;;;;;;;9.08;78.17;99708.25;15714678;28;20500;-61
2021/11/04 02:20:35;;;;;;;1999.90;999.90;;;;;;;9.09;78.27;99667.34;15690083;28;20060;-61
2021/11/04 02:28:12;;;;;;;1999.90;999.90;;;;;;;8.89;78.91;99638.47;15683380;28;20045;-60
2021/11/04 02:35:51;;;;;;;1999.90;999.90;;;;;;;8.93;79.16;99650.50;15686185;28;20211;-58
2021/11/04 02:43:26;;;;;;;1999.90;999.90;;;;;;;8.96;79.11;99642.31;15723132;28;20049;-61
2021/11/04 02:50:59;;;;;;;1999.90;999.90;;;;;;;9.05;78.83;99635.78;15700826;28;20037;-61
2021/11/04 02:58:32;;;;;;;1999.90;999.90;;;;;;;9.15;78.23;99641.69;15730029;28;20417;-59
2021/11/04 03:06:06;;;;;;;1999.90;999.90;;;;;;;9.33;77.72;99660.94;15707692;28;20055;-59
2021/11/04 03:13:39;;;;;;;1999.90;999.90;;;;;;;9.34;77.33;99665.34;15721398;28;20048;-59
2021/11/04 03:21:14;;;;;;;1999.90;999.90;;;;;;;9.02;78.77;99651.22;15742419;28;20498;-59
2021/11/04 03:28:48;;;;;;;1999.90;999.90;;;;;;;8.94;79.05;99647.38;15709492;28;20055;-59
2021/11/04 03:36:23;;;;;;;1999.90;999.90;;;;;;;8.85;79.27;99641.13;15695520;28;20060;-60
2021/11/04 03:43:57;;;;;;;1999.90;999.90;;;;;;;9.15;78.57;99641.69;15723105;28;20448;-60
2021/11/04 03:51:31;;;;;;;1999.90;999.90;;;;;;;9.06;78.60;99632.66;15694050;28;20033;-60
2021/11/04 03:59:05;;;;;;;1999.90;999.90;;;;;;;9.27;77.99;99621.38;15676566;28;20053;-58
2021/11/04 04:06:38;;;;;;;1999.90;999.90;;;;;;;9.07;78.72;99614.00;15667784;28;20487;-60
2021/11/04 04:14:13;;;;;;;1999.90;999.90;;;;;;;9.18;78.33;99579.78;15722376;28;20494;-60
2021/11/04 04:21:46;;;;;;;1999.90;999.90;;;;;;;9.33;77.73;99552.34;15725076;28;20063;-60
2021/11/04 04:29:20;;;;;;;1999.90;999.90;;;;;;;9.47;77.55;99566.69;15726056;28;20049;-61
2021/11/04 04:36:53;;;;;;;1999.90;999.90;;;;;;;9.40;77.49;99583.19;15721128;28;20044;-58
2021/11/04 04:44:27;;;;;;;1999.90;999.90;;;;;;;9.26;78.12;99581.59;15702606;28;20524;-62
2021/11/04 04:51:59;;;;;;;1999.90;999.90;;;;;;;9.16;78.16;99565.38;15687313;28;20076;-62
2021/11/04 04:59:33;;;;;;;1999.90;999.90;;;;;;;9.36;77.53;99557.22;15709068;28;20048;-62
2021/11/04 05:07:06;;;;;;;1999.90;999.90;;;;;;;9.17;78.23;99563.41;15688990;28;20048;-60
2021/11/04 05:14:40;;;;;;;1999.90;999.90;;;;;;;9.30;78.05;99550.28;15753190;28;20453;-61
2021/11/04 05:22:12;;;;;;;1999.90;999.90;;;;;;;9.63;76.33;99528.56;15701594;28;20052;-57
2021/11/04 05:29:47;;;;;;;1999.90;999.90;;;;;;;9.47;77.25;99522.94;15721538;28;20048;-59
2021/11/04 05:37:19;;;;;;;1999.90;999.90;;;;;;;9.47;77.39;99519.34;15712778;28;20067;-59
2021/11/04 05:44:53;;;;;;;1999.90;999.90;;;;;;;9.89;75.09;99514.13;15701116;28;20052;-61
2021/11/04 05:52:26;;;;;;;1999.90;999.90;;;;;;;9.47;76.59;99505.44;15700750;28;20102;-62
2021/11/04 06:00:11;;;;;;;1999.90;999.90;;;;;;;9.49;77.14;99501.16;15730101;28;20379;-62
2021/11/04 06:07:44;;;;;;;1999.90;999.90;;;;;;;9.49;76.55;99484.44;15696076;28;20561;-61
2021/11/04 06:15:18;;;;;;;1999.90;999.90;;;;;;;9.68;75.98;99477.34;15672334;28;20047;-61
2021/11/04 06:22:50;;;;;;;1999.90;999.90;;;;;;;9.59;75.97;99463.63;15711085;28;20098;-58
2021/11/04 06:30:24;;;;;;;1999.90;999.90;;;;;;;9.66;76.45;99465.78;15739435;28;20069;-58
2021/11/04 06:37:57;;;;;;;1999.90;999.90;;;;;;;9.42;76.83;99472.28;15690278;28;20486;-59
2021/11/04 06:45:34;;;;;;;1999.90;999.90;;;;;;;9.20;77.91;99456.97;15748918;28;20408;-60
2021/11/04 06:53:08;;;;;;;1999.90;999.90;;;;;;;9.46;77.00;99456.47;15748104;28;20040;-61
2021/11/04 07:00:45;;;;;;;1999.90;999.90;;;;;;;9.49;77.41;99456.59;15748617;28;20044;-61
2021/11/04 07:08:22;;;;;;;1999.90;999.90;;;;;;;9.57;76.89;99465.94;15707847;28;20123;-60
2021/11/04 07:15:57;;;;;;;1999.90;999.90;;;;;;;9.63;76.96;99461.72;15726640;28;20044;-59
2021/11/04 07:23:38;;;;;;;1999.90;999.90;;;;;;;9.58;76.83;99452.81;15709154;28;20553;-57
2021/11/04 07:31:12;;;;;;;1999.90;999.90;;;;;;;9.51;77.47;99429.19;15722428;28;20045;-63
2021/11/04 07:38:47;;;;;;;1999.90;999.90;;;;;;;9.75;75.88;99431.00;15746622;28;20521;-60
2021/11/04 07:46:20;;;;;;;1999.90;999.90;;;;;;;9.82;75.33;99414.50;15746400;28;20072;-60
2021/11/04 07:53:53;;;;;;;1999.90;999.90;;;;;;;9.48;76.35;99413.22;15722167;28;20044;-60
2021/11/04 08:01:27;;;;;;;1999.90;999.90;;;;;;;9.51;76.86;99406.91;15728578;28;20044;-58
2021/11/04 08:09:02;;;;;;;1999.90;999.90;;;;;;;9.33;79.19;99402.84;15696178;28;20056;-62
2021/11/04 08:16:35;;;;;;;1999.90;999.90;;;;;;;9.45;78.79;99399.19;15701745;28;20060;-61
2021/11/04 08:24:08;;;;;;;1999.90;999.90;;;;;;;9.68;77.97;99391.00;15695475;28;20041;-61
2021/11/04 08:31:42;;;;;;;1999.90;999.90;;;;;;;9.38;79.45;99369.19;15682013;28;20048;-61
2021/11/04 08:39:15;;;;;;;1999.90;999.90;;;;;;;9.49;78.71;99356.34;15705405;28;20056;-61
2021/11/04 08:46:49;;;;;;;1999.90;999.90;;;;;;;9.29;80.40;99340.72;15726197;28;20044;-61
2021/11/04 08:54:22;;;;;;;1999.90;999.90;;;;;;;9.03;82.16;99335.63;15681661;28;20052;-61
2021/11/04 09:01:56;;;;;;;1999.90;999.90;;;;;;;9.19;81.19;99308.66;15710276;28;20037;-60
2021/11/04 09:09:29;;;;;;;1999.90;999.90;;;;;;;9.24;81.49;99285.31;15714757;28;20036;-61
2021/11/04 09:17:03;;;;;;;1999.90;999.90;;;;;;;9.27;80.95;99276.22;15699160;28;20075;-61
2021/11/04 09:24:36;;;;;;;1999.90;999.90;;;;;;;9.06;81.50;99251.44;15713063;28;20454;-60
2021/11/04 09:32:11;;;;;;;1999.90;999.90;;;;;;;9.23;81.48;99241.94;15692677;28;20524;-60
2021/11/04 09:39:44;;;;;;;1999.90;999.90;;;;;;;8.92;82.50;99235.19;15692979;28;20448;-61
2021/11/04 09:47:20;;;;;;;1999.90;999.90;;;;;;;9.16;82.15;99211.16;15697995;28;20525;-60
2021/11/04 09:54:55;;;;;;;1999.90;999.90;;;;;;;9.03;82.04;99209.63;15707149;28;20040;-61
2021/11/04 10:02:29;;;;;;;1999.90;999.90;;;;;;;9.14;82.06;99194.81;15699219;28;20068;-60
2021/11/04 10:10:03;;;;;;;1999.90;999.90;;;;;;;9.11;82.03;99173.28;15684249;28;20095;-61
2021/11/04 10:17:37;;;;;;;;;;;;;;;9.03;82.96;99156.78;15713788;28;20094;-61
2021/11/04 10:25:22;;;;;;;1999.90;999.90;;;;;;;9.19;82.51;99146.44;15706792;28;20619;-60
2021/11/04 10:32:56;;;;;;;1999.90;999.90;;;;;;;9.24;82.18;99132.22;15694608;28;20047;-61
2021/11/04 10:40:28;;;;;;;1999.90;999.90;;;;;;;9.15;82.45;99120.47;15699009;28;20033;-60
2021/11/04 10:48:20;;;;;;;1999.90;999.90;;;;;;;9.20;82.33;99115.47;15671344;28;20045;-59
2021/11/04 10:55:54;;;;;;;1999.90;999.90;;;;;;;9.30;81.66;99121.63;15728068;28;20044;-59
2021/11/04 11:03:30;;;;;;;1999.90;999.90;;;;;;;9.48;80.59;99108.91;15696060;28;20057;-61
2021/11/04 11:11:02;;;;;;;1999.90;999.90;;;;;;;9.49;80.26;99093.84;15672047;28;20132;-60
2021/11/04 11:18:37;;;;;;;1999.90;999.90;;;;;;;9.58;80.32;99097.19;15744390;28;20076;-61
2021/11/04 11:26:14;;;;;;;1999.90;999.90;;;;;;;9.35;81.41;99083.19;15723146;28;20094;-59
2021/11/04 11:34:11;;;;;;;1999.90;999.90;;;;;;;9.68;79.06;99079.91;15688548;28;20098;-61
2021/11/04 11:42:09;;;;;;;1999.90;999.90;;;;;;;9.52;80.75;99071.63;15700118;28;20456;-61
2021/11/04 11:49:43;;;;;;;1999.90;999.90;;;;;;;9.52;80.08;99054.91;15716016;28;20401;-59
2021/11/04 11:57:17;;;;;;;1999.90;999.90;;;;;;;9.76;79.55;99053.81;15723069;28;20044;-59
2021/11/04 12:04:51;;;;;;;1999.90;999.90;;;;;;;9.65;79.74;99043.63;15692682;28;20132;-60
2021/11/04 12:12:52;;;;;;;1999.90;999.90;;;;;;;9.87;79.00;99044.84;15696621;28;20103;-60
2021/11/04 12:20:24;;;;;;;1999.90;999.90;;;;;;;9.69;79.44;99036.97;15666970;28;20127;-61
2021/11/04 12:28:01;;;;;;;1999.90;999.90;;;;;;;9.80;79.46;99023.25;15703550;28;20060;-59
2021/11/04 12:35:42;;;;;;;1999.90;999.90;;;;;;;9.88;79.17;99013.84;15683415;28;20567;-60
2021/11/04 12:43:15;;;;;;;1999.90;999.90;;;;;;;9.62;80.08;99017.34;15720161;28;20486;-58
2021/11/04 12:50:59;;;;;;;1999.90;999.90;;;;;;;9.82;80.11;99015.34;15708327;28;20110;-59
2021/11/04 12:58:32;;;;;;;1999.90;999.90;;;;;;;9.76;80.16;99022.38;15679967;28;20052;-59
2021/11/04 13:06:07;;;;;;;1999.90;999.90;;;;;;;9.92;80.10;99016.72;15709582;28;20123;-61
2021/11/04 13:13:48;;;;;;;1999.90;999.90;;;;;;;9.67;80.99;99011.44;15739424;28;20041;-61
2021/11/04 13:21:23;;;;;;;1999.90;999.90;;;;;;;9.78;81.24;99006.88;15702207;28;20049;-60
2021/11/04 13:28:57;;;;;;;1999.90;999.90;;;;;;;9.74;81.30;99019.16;15678546;28;20037;-61
2021/11/04 13:36:29;;;;;;;1999.90;999.90;;;;;;;9.84;81.22;99021.34;15722542;28;20509;-61
2021/11/04 13:44:16;;;;;;;1999.90;999.90;;;;;;;9.83;81.78;99009.38;15705395;28;20478;-60
2021/11/04 13:51:53;;;;;;;1999.90;999.90;;;;;;;9.67;82.80;99025.38;15699037;28;20045;-60
2021/11/04 13:59:32;;;;;;;1999.90;999.90;;;;;;;9.83;82.40;99020.53;15714203;28;20047;-59
2021/11/04 14:07:04;;;;;;;1999.90;999.90;;;;;;;9.90;82.59;99031.00;15711646;28;20550;-60
2021/11/04 14:14:42;;;;;;;1999.90;999.90;;;;;;;9.86;83.24;99030.13;15675275;28;20048;-60
2021/11/04 14:22:16;;;;;;;1999.90;999.90;;;;;;;10.00;83.19;99024.00;15713310;28;20049;-61
2021/11/04 14:29:50;;;;;;;1999.90;999.90;;;;;;;10.02;82.83;99025.25;15685721;28;20218;-59
2021/11/04 14:37:27;;;;;;;1999.90;999.90;;;;;;;10.22;83.13;99030.81;15709752;28;20051;-59
2021/11/04 14:45:01;;;;;;;1999.90;999.90;;;;;;;10.29;83.07;99037.31;15686309;28;20134;-58
2021/11/04 14:52:34;;;;;;;1999.90;999.90;;;;;;;10.39;83.16;99036.69;15695280;28;20099;-59
2021/11/04 15:00:09;;;;;;;1999.90;999.90;;;;;;;10.45;83.40;99036.38;15710480;28;20482;-58
2021/11/04 15:07:42;;;;;;;1999.90;999.90;;;;;;;10.43;84.20;99031.19;15695245;28;20044;-59
2021/11/04 15:15:22;;;;;;;1999.90;999.90;;;;;;;10.46;85.07;99041.59;15705858;28;20041;-57
2021/11/04 15:22:55;;;;;;;1999.90;999.90;;;;;;;10.60;85.32;99027.88;15719878;28;20140;-63
2021/11/04 15:30:29;;;;;;;1999.90;999.90;;;;;;;10.50;86.95;99038.84;15709952;28;20083;-59
2021/11/04 15:38:02;;;;;;;1999.90;999.90;;;;;;;10.44;87.27;99035.59;15686800;28;20060;-59
2021/11/04 15:45:36;;;;;;;1999.90;999.90;;;;;;;10.65;86.60;99046.28;15727813;28;20075;-58
2021/11/04 15:53:08;;;;;;;1999.90;999.90;;;;;;;10.28;87.63;99058.00;15692436;28;20044;-56
2021/11/04 16:00:42;;;;;;;1999.90;999.90;;;;;;;10.26;87.36;99054.78;15706130;28;20484;-55
2021/11/04 16:08:16;;;;;;;1999.90;999.90;;;;;;;10.15;88.15;99062.13;15699548;28;20064;-56
2021/11/04 16:15:50;;;;;;;1999.90;999.90;;;;;;;10.37;87.33;99092.03;15683260;28;20083;-59
2021/11/04 16:23:23;;;;;;;1999.90;999.90;;;;;;;10.39;86.77;99098.03;15708953;28;20048;-59
2021/11/04 16:30:57;;;;;;;1999.90;999.90;;;;;;;10.37;86.58;99105.16;15699502;28;20084;-56
2021/11/04 16:38:30;;;;;;;1999.90;999.90;;;;;;;10.48;85.75;99119.28;15690196;28;20064;-55
2021/11/04 16:46:04;;;;;;;1999.90;999.90;;;;;;;10.75;85.59;99136.91;15706605;28;20060;-58
2021/11/04 16:53:37;;;;;;;1999.90;999.90;;;;;;;10.49;85.63;99154.34;15658809;28;20074;-58
2021/11/04 17:01:11;;;;;;;1999.90;999.90;;;;;;;10.29;86.01;99176.69;15715414;28;20500;-59
2021/11/04 17:08:45;;;;;;;1999.90;999.90;;;;;;;10.33;86.15;99177.59;15693417;28;20041;-56
2021/11/04 17:16:19;;;;;;;1999.90;999.90;;;;;;;10.30;86.27;99222.91;15698800;28;20078;-56
2021/11/04 17:23:52;;;;;;;1999.90;999.90;;;;;;;10.20;87.38;99242.97;15704450;28;20072;-54
2021/11/04 17:31:25;;;;;;;1999.90;999.90;;;;;;;10.33;86.46;99263.19;15672172;28;20049;-56
2021/11/04 17:38:58;;;;;;;1999.90;999.90;;;;;;;10.08;87.33;99276.56;15690816;28;20044;-58
2021/11/04 17:46:33;;;;;;;1999.90;999.90;;;;;;;10.16;86.73;99285.88;15712477;28;20045;-58
2021/11/04 17:54:09;;;;;;;1999.90;999.90;;;;;;;10.00;87.16;99320.16;15679536;28;20045;-56
2021/11/04 18:01:44;;;;;;;1999.90;999.90;;;;;;;9.94;86.98;99348.69;15721011;28;20577;-58
2021/11/04 18:09:17;;;;;;;1999.90;999.90;;;;;;;9.62;87.35;99370.19;15668442;28;20044;-63
2021/11/04 18:16:50;;;;;;;1999.90;999.90;;;;;;;9.64;86.83;99384.56;15694369;28;20421;-58
2021/11/04 18:24:23;;;;;;;1999.90;999.90;;;;;;;9.66;86.69;99410.06;15700315;28;20041;-60
2021/11/04 18:31:57;;;;;;;1999.90;999.90;;;;;;;9.58;87.01;99430.53;15690239;28;20064;-59
2021/11/04 18:39:29;;;;;;;1999.90;999.90;;;;;;;9.55;86.38;99460.72;15738051;28;20067;-57
2021/11/04 18:47:04;;;;;;;1999.90;999.90;;;;;;;9.58;86.11;99478.69;15721328;28;20045;-54
2021/11/04 18:54:38;;;;;;;1999.90;999.90;;;;;;;9.17;86.86;99493.81;15714704;28;20132;-56
2021/11/04 19:02:12;;;;;;;1999.90;999.90;;;;;;;9.28;87.01;99533.13;15710438;28;20068;-56
2021/11/04 19:09:46;;;;;;;1999.90;999.90;;;;;;;9.39;86.69;99556.53;15704481;28;20045;-59
2021/11/04 19:17:21;;;;;;;1999.90;999.90;;;;;;;9.63;85.92;99575.09;15697040;28;20139;-61
2021/11/04 19:24:53;;;;;;;1999.90;999.90;;;;;;;9.45;86.44;99614.38;15705177;28;20462;-62
2021/11/04 19:32:28;;;;;;;1999.90;999.90;;;;;;;9.45;86.26;99622.72;15706871;28;20048;-61
2021/11/04 19:40:00;;;;;;;1999.90;999.90;;;;;;;9.58;85.54;99648.56;15709764;28;20144;-60
2021/11/04 19:47:35;;;;;;;1999.90;999.90;;;;;;;9.29;86.55;99663.59;15693882;28;20047;-58
2021/11/04 19:55:08;;;;;;;1999.90;999.90;;;;;;;9.40;86.50;99703.72;15723095;28;20502;-58
2021/11/04 20:02:42;;;;;;;1999.90;999.90;;;;;;;9.30;86.66;99722.88;15731994;28;20049;-58
2021/11/04 20:10:14;;;;;;;1999.90;999.90;;;;;;;9.23;86.51;99751.28;15724067;28;20413;-56
2021/11/04 20:17:50;;;;;;;1999.90;999.90;;;;;;;9.29;85.23;99785.28;15663783;28;20049;-56
2021/11/04 20:25:22;;;;;;;1999.90;999.90;;;;;;;9.25;84.95;99802.66;15721364;28;20536;-56
2021/11/04 20:32:57;;;;;;;1999.90;999.90;;;;;;;9.16;84.50;99827.00;15736432;23;20079;-74
2021/11/04 20:40:30;;;;;;;1999.90;999.90;;;;;;;9.44;83.98;99866.13;15790762;28;20127;-74
2021/11/04 20:48:04;;;;;;;1999.90;999.90;;;;;;;9.36;84.09;99877.38;15786765;23;20527;-62
2021/11/04 20:55:37;;;;;;;1999.90;999.90;;;;;;;9.26;84.48;99898.13;15764779;28;20049;-61
2021/11/04 21:03:16;;;;;;;1999.90;999.90;;;;;;;9.41;85.11;99916.16;15781295;28;20588;-55
2021/11/04 21:10:49;;;;;;;1999.90;999.90;;;;;;;9.53;84.88;99930.09;15753565;28;20408;-58
2021/11/04 21:18:23;;;;;;;1999.90;999.90;;;;;;;9.57;84.90;99952.50;15741923;28;20075;-57
2021/11/04 21:25:59;;;;;;;1999.90;999.90;;;;;;;9.16;85.17;99979.25;15779230;28;20123;-59
2021/11/04 21:33:34;;;;;;;1999.90;999.90;;;;;;;9.48;84.24;100000.75;15775890;28;20066;-57
2021/11/04 21:41:09;;;;;;;1999.90;999.90;;;;;;;9.47;83.71;100012.22;15796083;28;20135;-59
2021/11/04 21:48:45;;;;;;;1999.90;999.90;;;;;;;9.58;83.51;100009.81;15700348;28;20057;-58
2021/11/04 21:56:18;;;;;;;1999.90;999.90;;;;;;;9.59;83.11;100034.56;15776099;28;20036;-58
2021/11/04 22:03:52;;;;;;;1999.90;999.90;;;;;;;9.48;84.48;100044.47;15726389;28;20044;-58
2021/11/04 22:11:25;;;;;;;1999.90;999.90;;;;;;;9.39;84.34;100055.72;15787837;28;20123;-58
2021/11/04 22:18:59;;;;;;;1999.90;999.90;;;;;;;9.82;83.52;100071.19;15762006;28;20413;-55
2021/11/04 22:26:36;;;;;;;1999.90;999.90;;;;;;;9.28;85.44;100079.56;15729628;28;20496;-58
2021/11/04 22:34:11;;;;;;;1999.90;999.90;;;;;;;9.41;84.54;100099.94;15734305;28;20129;-58
2021/11/04 22:41:50;;;;;;;1999.90;999.90;;;;;;;9.32;84.71;100104.75;15763732;28;20381;-58
2021/11/04 22:49:24;;;;;;;1999.90;999.90;;;;;;;9.34;84.55;100116.34;15775828;28;20052;-58
2021/11/04 22:56:57;;;;;;;1999.90;999.90;;;;;;;9.41;84.17;100138.91;15720594;28;20140;-57
2021/11/04 23:04:31;;;;;;;1999.90;999.90;;;;;;;9.25;84.90;100158.97;15747344;28;20112;-57
2021/11/04 23:12:04;;;;;;;1999.90;999.90;;;;;;;9.39;84.71;100174.63;15745339;28;20459;-58
2021/11/04 23:19:38;;;;;;;1999.90;999.90;;;;;;;9.08;86.00;100194.47;15762609;28;20127;-57
2021/11/04 23:27:11;;;;;;;1999.90;999.90;;;;;;;9.34;85.01;100219.38;15781930;28;20594;-57
2021/11/04 23:34:46;;;;;;;1999.90;999.90;;;;;;;9.40;85.14;100237.53;15744606;28;20135;-57
2021/11/04 23:42:18;;;;;;;1999.90;999.90;;;;;;;9.30;85.24;100254.63;15762357;28;20572;-57
2021/11/04 23:49:52;;;;;;;1999.90;999.90;;;;;;;9.38;84.43;100259.31;15746165;28;20453;-57
2021/11/04 23:57:25;;;;;;;1999.90;999.90;;;;;;;9.35;84.29;100294.22;15742083;28;20041;-57
